Airfield :
LOGIN :

Register | Disclaimer

   EN    FR    IT 

 










Legend :    VFR   Marginal VFR   IFR   Intensive IFR   Very Intensive IFR
Visi :
Ceiling :
>= 8 km
>= 3000ft
5 to 8 km
1000 to 3000 ft
1500m to 5 km
500 to 1000 ft
800 to 1500m
200 to 500 ft
< 800m
< 200 ft
Symbols :   Thunderstorms  Fog  Heavy snow  Heavy precipitations  Wind > 20 kt
SIGMETs :     Misc.  Thunderstorms  Icing  Turbulence  Mountain Waves  Volcanic Ashes






- Airport Elevation : 17 ft
- IATA code : GRQ


EHGG - Groningen Eelde

CURRENT METAR :
  • 300055Z AUTO 18003KT 7000 NSC 10/10 Q1005

EXPIRED METARs :
  • 300025Z AUTO 17003KT 3400 BR NSC 10/10 Q1005
  • 292355Z AUTO 16004KT 9000 NCD 11/10 Q1005
  • 292325Z AUTO 18003KT 3700 NCD 09/09 Q1006
  • 292255Z AUTO 17002KT 9999 NCD 09/09 Q1006
  • 292225Z AUTO 18003KT 9999 NCD 10/10 Q1006
  • 292155Z AUTO 18003KT 9999 NCD 10/10 Q1006
  • 292125Z AUTO 19002KT 9999 NCD 11/10 Q1006
  • 292055Z AUTO 20003KT 9999 FEW020 12/11 Q1006 NOSIG
  • 292025Z AUTO 23003KT 9999 FEW026 12/11 Q1006 NOSIG

TAF TAF EHGG
Valid from the 30 at 00:00 until the 31 at 06:00 UTC


292316Z 3000/3106 18002KT 7000 MIFG NSC
TEMPO 3000/3004 0500 BCFG
BECMG 3004/3007 23005KT 9999 NSW FEW020
PROB30 3004/3007 BKN007
TEMPO 3010/3018 5000 SHRA SCT030CB
PROB40 3022/3106 4000 MIFG BR



MET'MAP, your aeronautical weather chart ! - Copyright ORBIFLY December 2007 - Disclaimer

ORBIFLY MET'MAP TEAM :

Programming & Development : Alexandra Zaïnal
Original concept : Baudouin d'Aumeries
Technical & hardware support : Manuel Goepfert
Assistance : Marc-Olivier Méhu




SOURCES & CREDITS :

   NOAA